Springfield, OH

6:16 AM EST on January 29, 2015 (GMT -0500)
Wright-Patterson Air Force Base | Change Station
CLOSE
Current Station
Airport
Location: Wright-Patt AFB,
Elevation: 823 ft
Nearby Weather Stations

Elev 823 ft 39.83 °N, 84.05 °W | Updated 18 minutes ago

Partly Cloudy
Partly Cloudy
33 °F
Feels Like 24 °F
N
13
Wind Variable Wind from SSE

Today
High -- | Low -- °F
--% Chance of Precip.
Yesterday
High -- | Low -- °F
Precip. -- in
7:46 AM 5:50 PM
Waxing Gibbous, 73% visible
Pressure 29.96 in
Visibility 10.0 miles
Clouds Few 2500 ft
Mostly Cloudy 4100 ft
Overcast 4800 ft
Windchill 24 °F
Dew Point 26 °F
Humidity 74%
Rainfall 0.02 in
Snow Depth Not available.
UV 0 out of 12
Pollen .10 out of 12
Air Quality Not available.
Flu Activity Not available.
METAR KFFO 291058Z 16011KT 10SM -RA FEW025 BKN041 OVC048 01/M03 A2992 RMK AO2A SLP144 P0002 T00071035

More Conditions Fewer Conditions

Pressure 29.96 in
Visibility 10.0 miles
Clouds Few 2500 ft
Mostly Cloudy 4100 ft
Overcast 4800 ft
Windchill 24 °F
Dew Point 26 °F
Humidity 74%
Rainfall 0.02 in
Snow Depth Not available.
UV 0 out of 12
Pollen .10 out of 12
Air Quality Not available.
Flu Activity Not available.
METAR KFFO 291058Z 16011KT 10SM -RA FEW025 BKN041 OVC048 01/M03 A2992 RMK AO2A SLP144 P0002 T00071035

More Conditions Fewer Conditions

10-Day Weather Forecast

Almanac

Astronomy

Jan. 29, 2015 Rise Set
Actual Time
Civil Twilight
Nautical Twilight
Astronomical Twilight
Moon
Length of Visible Light
Length of Day
Tomorrow will be .
, % of the Moon is Illuminated

Today's Extremes

State Highs State Lows

Community

WunderPhotos

Upload Photos

1,791,403 photos uploaded!

WunderBlogs® & News

Nearby

Air Quality

  Air Quality AQ Index Pollutant
Not available.

Snow Depth

Station Depth Elevation

Earthquake Activity

City Distance Mag. Time & Date
Minimum magnitude displayed is 2.5.

Coastal Water Temperatures

Place Temperature

Nearby Weather Stations